Time;durP1;ratioP1;P1;durP2;ratioP2;P2;SDS_P1;SDS_P2;PMS_P1;PMS_P2;Temp;Humidity;BMP_temperature;BMP_pressure;BME280_temperature;BME280_humidity;BME280_pressure;Samples;Min_cycle;Max_cycle;Signal;HPM_P1;HPM_P2
2023/12/16 00:01:45;;;;;;;38.50;19.83;;;;;;;2.55;94.87;101917.16;5092340;28;20650;-64
2023/12/16 00:04:17;;;;;;;34.33;18.20;;;;;;;2.56;95.65;101926.53;5092670;28;20193;-64
2023/12/16 00:06:47;;;;;;;29.43;16.97;;;;;;;2.56;95.69;101923.97;5093130;28;20638;-60
2023/12/16 00:09:15;;;;;;;30.90;18.07;;;;;;;2.57;95.83;101931.66;5095475;28;20818;-60
2023/12/16 00:11:43;;;;;;;31.17;17.77;;;;;;;2.57;95.75;101931.66;5088087;28;20209;-62
2023/12/16 00:14:11;;;;;;;33.90;18.23;;;;;;;2.57;95.80;101930.81;5080249;28;20655;-63
2023/12/16 00:16:44;;;;;;;32.23;17.90;;;;;;;2.59;96.01;101934.31;5092123;28;20224;-63
2023/12/16 00:19:12;;;;;;;38.57;19.37;;;;;;;2.61;95.35;101947.97;5090979;28;20200;-62
2023/12/16 00:21:40;;;;;;;40.07;18.97;;;;;;;2.61;95.74;101941.25;5086446;28;20632;-62
2023/12/16 00:24:09;;;;;;;36.03;18.53;;;;;;;2.61;95.58;101933.59;5092230;28;20683;-61
2023/12/16 00:26:37;;;;;;;35.37;19.43;;;;;;;2.64;95.54;101918.47;5097422;28;20608;-64
2023/12/16 00:29:05;;;;;;;38.27;18.20;;;;;;;2.65;95.83;101924.44;5095060;28;20197;-61
2023/12/16 00:31:33;;;;;;;35.80;19.17;;;;;;;2.64;95.49;101918.47;5094812;28;20228;-61
2023/12/16 00:34:01;;;;;;;37.63;18.37;;;;;;;2.64;95.82;101925.22;5094917;28;20593;-60
2023/12/16 00:36:29;;;;;;;36.70;19.80;;;;;;;2.61;96.24;101925.06;5095081;28;20644;-61
2023/12/16 00:38:57;;;;;;;43.40;21.30;;;;;;;2.62;96.28;101940.44;5094678;28;20212;-58
2023/12/16 00:41:26;;;;;;;41.77;21.40;;;;;;;2.62;95.96;101949.75;5091557;28;20568;-60
2023/12/16 00:43:54;;;;;;;44.67;22.57;;;;;;;2.63;96.31;101946.41;5093959;28;20200;-63
2023/12/16 00:46:22;;;;;;;44.87;22.07;;;;;;;2.62;96.39;101945.53;5089880;28;20223;-63
2023/12/16 00:48:50;;;;;;;47.40;23.27;;;;;;;2.61;97.29;101953.97;5099581;28;20228;-61
2023/12/16 00:51:20;;;;;;;46.77;23.90;;;;;;;2.63;96.83;101964.22;5086487;28;20215;-61
2023/12/16 00:53:48;;;;;;;48.60;24.93;;;;;;;2.57;97.59;101944.41;5096402;28;20325;-60
2023/12/16 00:56:16;;;;;;;49.17;23.83;;;;;;;2.58;97.63;101960.56;5096843;28;20208;-60
2023/12/16 00:58:48;;;;;;;51.87;24.73;;;;;;;2.59;97.74;101952.13;5094925;28;20212;-62
2023/12/16 01:01:16;;;;;;;55.47;25.70;;;;;;;2.57;98.73;101956.25;5102606;28;20203;-59
2023/12/16 01:03:45;;;;;;;60.20;26.17;;;;;;;2.59;99.01;101969.94;5092681;28;20558;-61
2023/12/16 01:06:13;;;;;;;53.00;25.10;;;;;;;2.57;99.16;101972.38;5094878;28;20249;-59
2023/12/16 01:08:42;;;;;;;51.27;24.47;;;;;;;2.57;98.70;101971.50;5091227;28;20200;-60
2023/12/16 01:11:11;;;;;;;47.23;23.77;;;;;;;2.57;98.96;101972.38;5103649;28;20200;-62
2023/12/16 01:13:39;;;;;;;55.70;26.47;;;;;;;2.58;99.37;101965.66;5102728;28;20208;-62
2023/12/16 01:16:09;;;;;;;57.60;27.70;;;;;;;2.56;99.74;101965.56;5086302;28;20621;-60
2023/12/16 01:18:37;;;;;;;62.00;26.07;;;;;;;2.56;99.40;101954.50;5103408;28;20231;-61
2023/12/16 01:21:06;;;;;;;60.47;27.73;;;;;;;2.52;99.82;101962.78;5097187;28;20245;-62
2023/12/16 01:23:34;;;;;;;56.73;25.07;;;;;;;2.50;100.00;101956.72;5091606;28;20215;-61
2023/12/16 01:26:03;;;;;;;63.93;26.67;;;;;;;2.54;100.00;101957.00;5096407;28;20286;-61
2023/12/16 01:28:31;;;;;;;61.93;26.80;;;;;;;2.54;100.00;101956.09;5108800;28;20573;-62
2023/12/16 01:30:59;;;;;;;60.47;27.50;;;;;;;2.54;100.00;101948.44;5096150;28;20204;-62
2023/12/16 01:33:29;;;;;;;62.70;26.87;;;;;;;2.56;100.00;101946.88;5088213;28;20221;-62
2023/12/16 01:35:57;;;;;;;69.60;29.87;;;;;;;2.56;100.00;101947.75;5088421;28;20636;-61
2023/12/16 01:38:26;;;;;;;57.93;26.33;;;;;;;2.53;100.00;101942.50;5092321;28;20253;-64
2023/12/16 01:40:54;;;;;;;55.63;26.73;;;;;;;2.52;100.00;101942.44;5092009;28;20678;-58
2023/12/16 01:43:21;;;;;;;56.73;24.77;;;;;;;2.53;100.00;101947.56;5097415;28;20269;-60
2023/12/16 01:46:00;;;;;;;57.30;26.70;;;;;;;2.52;100.00;101947.50;5091996;28;20204;-61
2023/12/16 01:48:31;;;;;;;63.60;26.70;;;;;;;2.52;100.00;101955.16;5099266;28;20660;-60
2023/12/16 01:51:00;;;;;;;61.67;24.00;;;;;;;2.54;100.00;101954.44;5086465;28;20228;-59
2023/12/16 01:53:30;;;;;;;60.33;25.67;;;;;;;2.55;100.00;101958.72;5093327;28;20227;-60
2023/12/16 01:55:58;;;;;;;62.40;26.13;;;;;;;2.56;100.00;101959.59;5087789;28;20701;-60
2023/12/16 01:58:26;;;;;;;63.90;26.80;;;;;;;2.56;100.00;101951.97;5093210;28;20197;-60
2023/12/16 02:00:54;;;;;;;62.60;24.87;;;;;;;2.51;100.00;101956.81;5087061;28;20204;-65
2023/12/16 02:03:23;;;;;;;60.57;24.63;;;;;;;2.52;100.00;101950.06;5082315;28;20317;-61
2023/12/16 02:05:53;;;;;;;59.50;25.30;;;;;;;2.53;100.00;101950.13;5090166;28;20358;-61
2023/12/16 02:08:21;;;;;;;58.27;24.77;;;;;;;2.53;100.00;101946.72;5090231;28;20204;-61
2023/12/16 02:10:49;;;;;;;55.33;24.53;;;;;;;2.56;100.00;101954.50;5093299;28;20204;-62
2023/12/16 02:13:18;;;;;;;73.90;30.33;;;;;;;2.56;100.00;101941.78;5090645;28;20266;-62
2023/12/16 02:15:46;;;;;;;63.87;25.03;;;;;;;2.55;100.00;101960.41;5084907;28;20719;-60
2023/12/16 02:18:14;;;;;;;67.40;26.87;;;;;;;2.54;100.00;101958.63;5094160;28;20655;-61
2023/12/16 02:20:42;;;;;;;64.73;26.60;;;;;;;2.56;100.00;101950.28;5095788;28;20254;-61
2023/12/16 02:23:15;;;;;;;60.03;25.33;;;;;;;2.57;100.00;101966.44;5104208;28;20200;-61
2023/12/16 02:25:43;;;;;;;60.87;24.50;;;;;;;2.60;100.00;101977.63;5095051;28;20200;-61
2023/12/16 02:28:11;;;;;;;64.70;27.30;;;;;;;2.61;100.00;101981.06;5098673;28;20573;-65
2023/12/16 02:30:40;;;;;;;63.50;24.83;;;;;;;2.61;100.00;101983.59;5096723;28;20663;-62
2023/12/16 02:33:08;;;;;;;67.37;26.37;;;;;;;2.62;100.00;101995.56;5093814;28;20248;-62
2023/12/16 02:35:35;;;;;;;56.77;25.80;;;;;;;2.62;100.00;101991.34;5088382;28;20205;-65
2023/12/16 02:38:03;;;;;;;62.23;25.03;;;;;;;2.64;100.00;101993.94;5094316;28;20192;-61
2023/12/16 02:40:38;;;;;;;61.50;24.97;;;;;;;2.66;100.00;101993.22;5098567;28;20667;-60
2023/12/16 02:43:06;;;;;;;59.17;25.97;;;;;;;2.67;100.00;101997.53;5096770;28;20234;-61
2023/12/16 02:45:35;;;;;;;55.67;24.00;;;;;;;2.68;100.00;101995.84;5097091;28;20287;-61
2023/12/16 02:48:03;;;;;;;61.40;24.13;;;;;;;2.68;100.00;101993.31;5097788;28;20232;-61
2023/12/16 02:50:31;;;;;;;62.73;24.00;;;;;;;2.66;100.00;101988.16;5097219;28;20674;-62
2023/12/16 02:52:59;;;;;;;58.97;24.67;;;;;;;2.66;100.00;101994.91;5099072;28;20748;-62
2023/12/16 02:55:27;;;;;;;51.23;22.50;;;;;;;2.64;100.00;101992.28;5090476;28;20569;-64
2023/12/16 02:57:57;;;;;;;57.87;23.90;;;;;;;2.66;100.00;101989.81;5103760;28;20644;-61
2023/12/16 03:00:25;;;;;;;56.47;22.67;;;;;;;2.67;100.00;101989.00;5092735;28;20686;-62
2023/12/16 03:02:53;;;;;;;61.03;23.83;;;;;;;2.68;100.00;101978.03;5087154;28;20197;-61
2023/12/16 03:05:21;;;;;;;62.87;23.50;;;;;;;2.69;100.00;101971.25;5094220;28;20200;-61
2023/12/16 03:07:49;;;;;;;59.53;22.63;;;;;;;2.68;100.00;101957.66;5088314;28;20208;-60
2023/12/16 03:10:17;;;;;;;60.10;22.83;;;;;;;2.69;100.00;101956.91;5092649;28;20770;-59
2023/12/16 03:12:45;;;;;;;55.10;22.53;;;;;;;2.69;100.00;101951.81;5090259;28;20216;-62
2023/12/16 03:15:15;;;;;;;63.97;23.50;;;;;;;2.70;100.00;101950.13;5098016;28;20209;-62
2023/12/16 03:17:43;;;;;;;58.00;23.23;;;;;;;2.71;100.00;101944.25;5087475;28;20610;-60
2023/12/16 03:20:12;;;;;;;56.03;25.87;;;;;;;2.72;100.00;101951.06;5093163;28;20205;-61
2023/12/16 03:22:40;;;;;;;58.13;22.73;;;;;;;2.72;100.00;101951.06;5090075;28;20591;-60
2023/12/16 03:25:09;;;;;;;59.47;22.30;;;;;;;2.75;100.00;101957.19;5091714;28;20205;-63
2023/12/16 03:27:37;;;;;;;61.80;25.13;;;;;;;2.77;100.00;101955.59;5093995;28;20246;-63
2023/12/16 03:30:07;;;;;;;56.80;21.87;;;;;;;2.79;100.00;101973.50;5100893;28;20200;-66
2023/12/16 03:32:36;;;;;;;73.73;25.37;;;;;;;2.78;100.00;101967.53;5100538;28;20211;-62
2023/12/16 03:35:05;;;;;;;63.43;24.47;;;;;;;2.80;100.00;101975.22;5103442;28;20661;-63
2023/12/16 03:37:33;;;;;;;61.47;25.23;;;;;;;2.81;100.00;101977.00;5090623;28;20209;-60
2023/12/16 03:40:01;;;;;;;62.17;24.30;;;;;;;2.81;100.00;101977.88;5099489;28;20189;-63
2023/12/16 03:42:29;;;;;;;54.73;22.60;;;;;;;2.82;100.00;101961.78;5093384;28;20689;-72
2023/12/16 03:44:58;;;;;;;58.07;21.73;;;;;;;2.81;100.00;101961.72;5099434;28;20646;-62
2023/12/16 03:47:26;;;;;;;53.60;21.53;;;;;;;2.81;100.00;101952.41;5100831;28;20196;-62
2023/12/16 03:49:55;;;;;;;57.27;23.17;;;;;;;2.82;100.00;101949.06;5096866;28;20196;-62
2023/12/16 03:52:23;;;;;;;53.97;24.77;;;;;;;2.84;100.00;101952.56;5096214;28;20549;-61
2023/12/16 03:54:51;;;;;;;58.67;24.13;;;;;;;2.83;100.00;101958.44;5098665;28;20639;-62
2023/12/16 03:57:19;;;;;;;51.43;21.40;;;;;;;2.85;100.00;101964.50;5095417;28;20216;-61
2023/12/16 03:59:47;;;;;;;55.50;22.97;;;;;;;2.85;100.00;101964.50;5084658;28;20270;-64
2023/12/16 04:02:15;;;;;;;50.23;20.93;;;;;;;2.86;100.00;101971.34;5098471;28;20220;-62
2023/12/16 04:04:44;;;;;;;59.77;22.77;;;;;;;2.88;100.00;101971.44;5098546;28;20612;-61
2023/12/16 04:07:13;;;;;;;55.77;21.97;;;;;;;2.89;100.00;101965.53;5094984;28;20196;-61
2023/12/16 04:09:41;;;;;;;56.57;23.87;;;;;;;2.86;100.00;101957.72;5100018;28;20305;-61
2023/12/16 04:12:10;;;;;;;54.00;21.97;;;;;;;2.88;100.00;101964.66;5098735;28;20690;-62
2023/12/16 04:14:40;;;;;;;59.67;23.60;;;;;;;2.88;100.00;101962.13;5091229;28;20242;-61
2023/12/16 04:17:08;;;;;;;56.50;22.80;;;;;;;2.89;100.00;101966.41;5090754;28;20209;-62
2023/12/16 04:19:38;;;;;;;51.83;21.83;;;;;;;2.89;100.00;101963.84;5101789;28;20208;-61
2023/12/16 04:22:06;;;;;;;57.13;24.43;;;;;;;2.89;100.00;101963.84;5086833;28;20205;-62
2023/12/16 04:24:36;;;;;;;57.77;22.33;;;;;;;2.88;100.00;101963.78;5088500;28;20223;-63
2023/12/16 04:27:04;;;;;;;60.33;22.27;;;;;;;2.88;100.00;101963.78;5086040;28;20201;-62
2023/12/16 04:29:32;;;;;;;55.73;22.20;;;;;;;2.88;100.00;101972.31;5093044;28;20207;-61
2023/12/16 04:32:00;;;;;;;56.57;22.57;;;;;;;2.90;100.00;101973.22;5091463;28;20193;-62
2023/12/16 04:34:28;;;;;;;54.23;22.33;;;;;;;2.93;100.00;101979.28;5097152;28;20220;-60
2023/12/16 04:36:56;;;;;;;56.63;22.23;;;;;;;2.90;100.00;101980.00;5090046;28;20633;-61
2023/12/16 04:39:24;;;;;;;57.13;21.30;;;;;;;2.94;100.00;101989.53;5091656;28;20613;-60
2023/12/16 04:41:54;;;;;;;54.43;22.27;;;;;;;2.93;100.00;101992.91;5089262;28;20581;-60
2023/12/16 04:44:22;;;;;;;55.53;23.83;;;;;;;2.95;100.00;101991.31;5091765;28;20204;-61
2023/12/16 04:46:50;;;;;;;47.50;19.60;;;;;;;2.93;100.00;101994.56;5094618;28;20212;-63
2023/12/16 04:49:17;;;;;;;50.40;20.57;;;;;;;2.92;100.00;101991.16;5101716;28;20239;-61
2023/12/16 04:51:46;;;;;;;52.60;22.13;;;;;;;2.96;100.00;101998.16;5093174;28;20216;-63
2023/12/16 04:54:14;;;;;;;59.23;21.00;;;;;;;2.98;100.00;101998.22;5097802;28;20300;-61
2023/12/16 04:56:42;;;;;;;56.10;20.90;;;;;;;2.97;100.00;102002.44;5090974;28;20209;-61
2023/12/16 04:59:11;;;;;;;50.87;20.87;;;;;;;2.96;100.00;101993.06;5089584;28;20272;-66
2023/12/16 05:01:39;;;;;;;56.53;20.60;;;;;;;3.00;100.00;102005.13;5094372;28;20231;-63
2023/12/16 05:04:08;;;;;;;54.13;22.70;;;;;;;3.02;100.00;102016.28;5094594;28;20196;-60
2023/12/16 05:06:36;;;;;;;48.47;20.03;;;;;;;3.03;100.00;102006.97;5099010;28;20214;-60
2023/12/16 05:09:08;;;;;;;59.07;21.40;;;;;;;3.03;100.00;102004.44;5097200;28;20203;-60
2023/12/16 05:11:36;;;;;;;61.30;21.40;;;;;;;3.05;100.00;102005.38;5095057;28;20298;-62
2023/12/16 05:14:05;;;;;;;58.47;20.73;;;;;;;3.06;100.00;102015.66;5087501;28;20689;-63
2023/12/16 05:16:34;;;;;;;49.57;22.00;;;;;;;3.06;100.00;102010.56;5092825;28;20197;-61
2023/12/16 05:19:03;;;;;;;50.53;21.67;;;;;;;3.05;100.00;102013.00;5088926;28;20215;-62
2023/12/16 05:21:31;;;;;;;52.77;21.10;;;;;;;3.05;100.00;102011.31;5093108;28;20558;-60
2023/12/16 05:23:59;;;;;;;50.67;20.13;;;;;;;3.08;100.00;102008.06;5098365;28;20232;-61
2023/12/16 05:26:27;;;;;;;48.60;20.37;;;;;;;3.08;100.00;102016.59;5097672;28;20208;-62
2023/12/16 05:28:55;;;;;;;53.63;21.47;;;;;;;3.09;100.00;102020.00;5079356;28;20292;-60
2023/12/16 05:31:23;;;;;;;51.90;21.00;;;;;;;3.10;100.00;102014.13;5090535;28;20215;-62
2023/12/16 05:33:52;;;;;;;51.17;20.13;;;;;;;3.11;100.00;102015.88;5093491;28;20208;-62
2023/12/16 05:36:20;;;;;;;52.73;21.63;;;;;;;3.12;100.00;102031.22;5088081;28;20200;-61
2023/12/16 05:38:48;;;;;;;51.17;20.10;;;;;;;3.12;100.00;102030.34;5088317;28;20215;-64
2023/12/16 05:41:16;;;;;;;48.30;21.60;;;;;;;3.14;100.00;102028.75;5092284;28;20350;-65
2023/12/16 05:43:44;;;;;;;49.27;19.57;;;;;;;3.15;100.00;102020.31;5092256;28;20196;-60
2023/12/16 05:46:12;;;;;;;47.67;19.50;;;;;;;3.16;100.00;102014.41;5087641;28;20297;-60
2023/12/16 05:48:40;;;;;;;53.37;20.93;;;;;;;3.18;100.00;102015.38;5092810;28;20247;-62
2023/12/16 05:51:10;;;;;;;47.30;19.03;;;;;;;3.18;100.00;102020.47;5090689;28;20616;-62
2023/12/16 05:53:38;;;;;;;50.70;20.87;;;;;;;3.20;100.00;102018.00;5091045;28;20193;-62
2023/12/16 05:56:07;;;;;;;47.40;19.97;;;;;;;3.20;100.00;102025.63;5083711;28;20220;-60
2023/12/16 05:58:34;;;;;;;52.57;20.50;;;;;;;3.21;100.00;102025.72;5101669;28;20233;-59
2023/12/16 06:01:06;;;;;;;47.57;19.87;;;;;;;3.25;100.00;102026.75;5094540;28;20329;-60
2023/12/16 06:03:34;;;;;;;55.73;20.97;;;;;;;3.25;100.00;102020.00;5092759;28;20212;-61
2023/12/16 06:06:02;;;;;;;45.30;19.43;;;;;;;3.25;100.00;102022.53;5099540;28;20702;-62
2023/12/16 06:08:32;;;;;;;46.63;19.47;;;;;;;3.27;100.00;102020.06;5089666;28;20224;-62
2023/12/16 06:11:00;;;;;;;42.43;19.87;;;;;;;3.28;100.00;102017.59;5091053;28;20669;-61
2023/12/16 06:13:28;;;;;;;49.10;21.07;;;;;;;3.30;100.00;102025.31;5092063;28;20205;-62
2023/12/16 06:15:56;;;;;;;46.43;19.77;;;;;;;3.30;100.00;102026.16;5099423;28;20216;-61
2023/12/16 06:18:43;;;;;;;45.67;19.17;;;;;;;3.32;100.00;102042.44;5091354;28;20287;-63
2023/12/16 06:21:11;;;;;;;44.70;19.20;;;;;;;3.31;100.00;102033.00;5095232;28;20713;-61
2023/12/16 06:23:41;;;;;;;45.50;19.47;;;;;;;3.32;100.00;102033.91;5085038;28;20208;-61
2023/12/16 06:26:08;;;;;;;49.10;20.60;;;;;;;3.33;100.00;102041.63;5091565;28;20687;-65
2023/12/16 06:28:36;;;;;;;45.57;20.87;;;;;;;3.34;100.00;102035.72;5091736;28;20731;-61
2023/12/16 06:31:05;;;;;;;46.63;21.10;;;;;;;3.34;100.00;102040.81;5095561;28;20636;-60
2023/12/16 06:33:33;;;;;;;45.37;19.23;;;;;;;3.34;100.00;102035.72;5092904;28;20254;-63
2023/12/16 06:36:01;;;;;;;49.60;19.57;;;;;;;3.36;100.00;102040.91;5090656;28;20260;-64
2023/12/16 06:38:30;;;;;;;44.30;20.70;;;;;;;3.36;100.00;102051.97;5103075;28;20257;-60
2023/12/16 06:41:00;;;;;;;48.57;22.33;;;;;;;3.37;100.00;102050.28;5101645;28;20257;-60
2023/12/16 06:43:28;;;;;;;47.40;19.77;;;;;;;3.36;100.00;102059.59;5091266;28;20647;-61
2023/12/16 06:45:56;;;;;;;49.07;21.97;;;;;;;3.39;100.00;102059.78;5083134;28;20204;-62
2023/12/16 06:48:27;;;;;;;42.83;19.33;;;;;;;3.39;100.00;102056.34;5103691;28;20660;-60
2023/12/16 06:50:57;;;;;;;47.47;20.03;;;;;;;3.42;100.00;102056.47;5098176;28;20204;-60
2023/12/16 06:53:25;;;;;;;44.23;19.53;;;;;;;3.43;100.00;102053.16;5102727;28;20609;-62
2023/12/16 06:55:53;;;;;;;51.67;20.87;;;;;;;3.43;100.00;102039.53;5090506;28;20220;-61
2023/12/16 06:58:22;;;;;;;52.63;22.57;;;;;;;3.44;100.00;102037.06;5094162;28;20670;-60
2023/12/16 07:00:50;;;;;;;49.53;20.27;;;;;;;3.44;100.00;102049.78;5092740;28;20211;-63
2023/12/16 07:03:18;;;;;;;45.13;20.07;;;;;;;3.46;100.00;102053.31;5083142;28;20626;-63
2023/12/16 07:05:46;;;;;;;41.80;19.87;;;;;;;3.47;100.00;102060.16;5094264;28;20200;-59
2023/12/16 07:08:14;;;;;;;44.50;20.83;;;;;;;3.48;100.00;102054.25;5094243;28;20291;-58
2023/12/16 07:10:43;;;;;;;45.00;18.87;;;;;;;3.50;100.00;102065.41;5095851;28;20255;-58
2023/12/16 07:13:11;;;;;;;48.47;19.10;;;;;;;3.51;100.00;102067.16;5088650;28;20197;-60
2023/12/16 07:15:40;;;;;;;43.27;19.17;;;;;;;3.52;100.00;102063.78;5090188;28;20266;-62
2023/12/16 07:18:08;;;;;;;51.70;20.23;;;;;;;3.54;100.00;102053.69;5092067;28;20231;-61
2023/12/16 07:20:37;;;;;;;46.13;19.47;;;;;;;3.56;100.00;102062.25;5095767;28;20209;-62
2023/12/16 07:23:05;;;;;;;51.53;20.80;;;;;;;3.55;100.00;102066.50;5092856;28;20201;-60
2023/12/16 07:25:33;;;;;;;47.60;22.37;;;;;;;3.57;100.00;102064.00;5106090;28;20599;-63
2023/12/16 07:28:01;;;;;;;48.43;20.70;;;;;;;3.55;100.00;102065.63;5091166;28;20207;-62
2023/12/16 07:30:30;;;;;;;46.63;19.77;;;;;;;3.56;100.00;102064.81;5101666;28;20211;-63
2023/12/16 07:32:59;;;;;;;43.13;19.17;;;;;;;3.58;100.00;102069.19;5093771;28;20613;-60
2023/12/16 07:35:27;;;;;;;42.90;19.47;;;;;;;3.60;100.00;102072.69;5097819;28;20717;-59
2023/12/16 07:37:55;;;;;;;45.57;20.27;;;;;;;3.62;100.00;102070.22;5097629;28;20197;-63
2023/12/16 07:40:23;;;;;;;45.70;20.07;;;;;;;3.63;100.00;102061.78;5095090;28;20281;-63
2023/12/16 07:42:51;;;;;;;37.13;19.17;;;;;;;3.64;100.00;102053.31;5091720;28;20601;-60
2023/12/16 07:45:19;;;;;;;39.53;19.13;;;;;;;3.65;100.00;102070.38;5082062;28;20239;-62
2023/12/16 07:47:47;;;;;;;50.33;20.27;;;;;;;3.67;100.00;102062.78;5089011;28;20240;-64
2023/12/16 07:50:19;;;;;;;36.63;17.90;;;;;;;3.71;100.00;102070.66;5090690;28;20575;-65
2023/12/16 07:52:48;;;;;;;35.00;17.97;;;;;;;3.72;100.00;102071.53;5098751;28;20712;-63
2023/12/16 07:55:16;;;;;;;44.67;19.17;;;;;;;3.75;100.00;102071.69;5095047;28;20281;-62
2023/12/16 07:57:44;;;;;;;40.90;17.60;;;;;;;3.76;100.00;102074.31;5096031;28;20208;-64
2023/12/16 08:00:13;;;;;;;38.67;18.30;;;;;;;3.81;100.00;102072.00;5091150;28;20204;-60
2023/12/16 08:02:41;;;;;;;35.53;18.17;;;;;;;3.84;100.00;102067.91;5092770;28;20205;-60
2023/12/16 08:05:09;;;;;;;39.17;18.43;;;;;;;3.85;100.00;102069.66;5086492;28;20200;-59
2023/12/16 08:07:38;;;;;;;39.23;17.70;;;;;;;3.93;100.00;102082.78;5093284;28;20208;-59
2023/12/16 08:10:08;;;;;;;35.27;18.57;;;;;;;3.96;100.00;102072.72;5091793;28;20244;-61
2023/12/16 08:12:36;;;;;;;34.80;16.60;;;;;;;3.97;100.00;102071.91;5089979;28;20208;-58
2023/12/16 08:15:05;;;;;;;38.23;17.67;;;;;;;4.02;100.00;102087.47;5091392;28;20212;-60
2023/12/16 08:17:33;;;;;;;35.27;17.20;;;;;;;4.04;100.00;102093.50;5092807;28;20196;-60
2023/12/16 08:20:00;;;;;;;35.10;17.00;;;;;;;4.07;100.00;102098.75;5091208;28;20209;-60
2023/12/16 08:22:29;;;;;;;38.10;17.83;;;;;;;4.07;100.00;102104.72;5089234;28;20659;-62
2023/12/16 08:24:58;;;;;;;33.67;16.27;;;;;;;4.10;100.00;102098.91;5086786;28;20226;-59
2023/12/16 08:27:26;;;;;;;35.00;16.70;;;;;;;4.09;100.00;102085.28;5091921;28;20566;-58
2023/12/16 08:29:55;;;;;;;33.30;16.87;;;;;;;4.10;100.00;102091.25;5092557;28;20208;-60
2023/12/16 08:32:23;;;;;;;33.63;15.83;;;;;;;4.08;100.00;102103.91;5099293;28;20200;-62
2023/12/16 08:34:51;;;;;;;30.43;15.20;;;;;;;4.09;100.00;102108.22;5089873;28;20566;-59
2023/12/16 08:37:22;;;;;;;29.17;14.67;;;;;;;4.08;100.00;102105.59;5086098;28;20636;-60
2023/12/16 08:39:50;;;;;;;27.40;13.63;;;;;;;4.08;100.00;102097.94;5088715;28;20197;-60
2023/12/16 08:42:19;;;;;;;28.03;13.00;;;;;;;4.10;100.00;102098.91;5082193;28;20648;-59
2023/12/16 08:44:47;;;;;;;29.50;13.70;;;;;;;4.12;99.53;102097.28;5096132;28;20566;-64
2023/12/16 08:47:15;;;;;;;23.00;12.87;;;;;;;4.13;99.10;102100.72;5093264;28;20292;-61
2023/12/16 08:49:44;;;;;;;24.70;11.73;;;;;;;4.14;98.66;102098.25;5086028;28;20229;-60
2023/12/16 08:52:13;;;;;;;20.80;11.57;;;;;;;4.18;97.99;102105.22;5089957;28;20243;-61
2023/12/16 08:54:41;;;;;;;23.63;13.10;;;;;;;4.21;97.70;102100.28;5090131;28;20204;-60
2023/12/16 08:57:09;;;;;;;21.90;11.13;;;;;;;4.24;97.03;102091.91;5095435;28;20334;-60
2023/12/16 08:59:39;;;;;;;26.70;13.47;;;;;;;4.28;96.72;102102.31;5102338;28;20201;-61
2023/12/16 09:02:07;;;;;;;31.33;13.00;;;;;;;4.31;96.59;102096.50;5104449;28;20743;-58
2023/12/16 09:04:35;;;;;;;31.20;14.70;;;;;;;4.35;96.29;102099.25;5087834;28;20212;-58
2023/12/16 09:07:05;;;;;;;29.37;13.90;;;;;;;4.42;96.80;102096.97;5103116;28;20196;-59
2023/12/16 09:09:33;;;;;;;30.03;14.63;;;;;;;4.49;96.49;102099.00;5097754;28;20236;-59
2023/12/16 09:12:01;;;;;;;31.60;14.07;;;;;;;4.51;95.84;102097.41;5105197;28;20673;-60
2023/12/16 09:14:29;;;;;;;25.23;13.27;;;;;;;4.58;95.82;102102.88;5111574;28;20200;-61
2023/12/16 09:16:58;;;;;;;30.03;14.30;;;;;;;4.67;95.40;102111.75;5095607;28;20217;-59
2023/12/16 09:19:26;;;;;;;27.60;14.30;;;;;;;4.71;95.46;102106.84;5109365;28;20234;-60
2023/12/16 09:21:55;;;;;;;28.17;14.70;;;;;;;4.74;95.01;102113.78;5094406;28;20200;-59
2023/12/16 09:24:23;;;;;;;27.13;14.43;;;;;;;4.80;94.88;102117.50;5091249;28;20201;-60
2023/12/16 09:26:51;;;;;;;27.90;14.90;;;;;;;4.85;94.82;102113.44;5085803;28;20654;-61
2023/12/16 09:29:19;;;;;;;25.87;14.50;;;;;;;4.88;94.07;102122.06;5088953;28;20673;-62
2023/12/16 09:31:47;;;;;;;32.17;14.97;;;;;;;4.88;94.36;102127.19;5098570;28;20211;-60
2023/12/16 09:34:17;;;;;;;26.70;13.97;;;;;;;4.86;94.42;102114.34;5091588;28;20577;-62
2023/12/16 09:36:45;;;;;;;24.97;13.70;;;;;;;4.88;94.23;102122.06;5095691;28;20270;-61
2023/12/16 09:39:13;;;;;;;30.67;14.57;;;;;;;4.85;93.82;102118.56;5091601;28;20204;-62
2023/12/16 09:41:44;;;;;;;28.83;14.40;;;;;;;4.85;93.56;102115.13;5088822;28;20205;-66
2023/12/16 09:44:14;;;;;;;28.07;13.30;;;;;;;4.84;93.46;102110.84;5084239;28;20211;-61
2023/12/16 09:46:44;;;;;;;26.27;13.10;;;;;;;4.84;94.05;102118.50;5097046;28;20557;-59
2023/12/16 09:49:13;;;;;;;32.23;13.90;;;;;;;4.84;93.43;102111.72;5088530;28;20274;-59
2023/12/16 09:51:43;;;;;;;26.70;12.60;;;;;;;4.87;93.52;102105.88;5096029;28;20203;-60
2023/12/16 09:54:11;;;;;;;32.33;13.27;;;;;;;4.92;93.33;102113.72;5084980;28;20200;-62
2023/12/16 09:56:40;;;;;;;26.27;13.17;;;;;;;4.94;93.56;102104.47;5104571;28;20215;-62
2023/12/16 09:59:10;;;;;;;25.53;12.50;;;;;;;4.92;92.68;102098.41;5091400;28;20605;-61
2023/12/16 10:01:38;;;;;;;29.73;12.43;;;;;;;4.93;93.10;102110.38;5091813;28;20254;-60
2023/12/16 10:04:08;;;;;;;25.63;12.07;;;;;;;4.95;93.31;102103.66;5092115;28;20211;-58
2023/12/16 10:06:36;;;;;;;31.77;11.97;;;;;;;4.98;92.93;102096.13;5090509;28;22928;-61
2023/12/16 10:09:06;;;;;;;22.27;10.87;;;;;;;4.99;92.80;102110.66;5091191;28;20207;-60
2023/12/16 10:11:39;;;;;;;27.03;10.93;;;;;;;5.00;92.28;102094.50;5095947;28;20201;-60
2023/12/16 10:14:07;;;;;;;21.10;11.57;;;;;;;4.98;91.77;102091.03;5092714;28;20261;-62
2023/12/16 10:16:39;;;;;;;24.40;10.73;;;;;;;5.01;91.87;102093.72;5088522;28;20577;-65
2023/12/16 10:19:07;;;;;;;23.60;11.40;;;;;;;5.05;92.65;102093.03;5092625;28;20736;-62
2023/12/16 10:21:35;;;;;;;24.93;11.30;;;;;;;5.05;91.91;102086.25;5095294;28;20203;-60
2023/12/16 10:24:03;;;;;;;21.77;11.17;;;;;;;5.08;92.09;102081.28;5094424;28;20238;-61
2023/12/16 10:26:34;;;;;;;24.83;11.63;;;;;;;5.08;92.08;102090.59;5095070;28;20206;-59
2023/12/16 10:29:04;;;;;;;17.83;10.93;;;;;;;5.11;90.83;102090.72;5095829;28;20197;-61
2023/12/16 10:31:32;;;;;;;20.23;11.17;;;;;;;5.10;91.55;102089.00;5090152;28;20213;-59
2023/12/16 10:34:02;;;;;;;21.17;10.63;;;;;;;5.13;91.84;102084.03;5090349;28;20687;-60
2023/12/16 10:36:30;;;;;;;27.77;12.13;;;;;;;5.17;91.40;102083.34;5090140;28;20197;-59
2023/12/16 10:38:59;;;;;;;20.23;11.37;;;;;;;5.24;91.74;102082.81;5092876;28;20600;-61
2023/12/16 10:41:27;;;;;;;24.73;11.97;;;;;;;5.36;91.61;102079.03;5096200;28;20212;-60
2023/12/16 10:43:56;;;;;;;19.67;11.00;;;;;;;5.42;91.02;102072.50;5091053;28;20232;-60
2023/12/16 10:46:32;;;;;;;22.17;12.50;;;;;;;5.45;90.41;102081.94;5095537;28;20207;-60
2023/12/16 10:49:02;;;;;;;19.13;10.90;;;;;;;5.38;90.11;102069.75;5093170;28;20242;-59
2023/12/16 10:51:33;;;;;;;23.07;11.47;;;;;;;5.39;89.89;102069.78;5098128;28;20284;-62
2023/12/16 10:54:06;;;;;;;24.13;12.00;;;;;;;5.38;90.42;102067.19;5095611;28;20624;-59
2023/12/16 10:56:39;;;;;;;21.50;12.73;;;;;;;5.35;90.43;102070.47;5096725;28;20203;-61
2023/12/16 10:59:19;;;;;;;22.53;11.00;;;;;;;5.33;90.90;102062.72;5100949;28;20570;-59
2023/12/16 11:01:56;;;;;;;25.53;13.30;;;;;;;5.29;90.94;102063.41;5091135;28;20201;-60
2023/12/16 11:04:27;;;;;;;25.37;13.17;;;;;;;5.29;91.32;102065.97;5100029;28;20192;-59
2023/12/16 11:07:04;;;;;;;32.80;13.73;;;;;;;5.26;90.66;102049.63;5090185;28;20198;-60
2023/12/16 11:09:32;;;;;;;31.00;14.03;;;;;;;5.29;91.87;102045.53;5094561;28;20716;-59
2023/12/16 11:12:01;;;;;;;23.93;13.53;;;;;;;5.33;91.49;102044.84;5095072;28;20201;-61
2023/12/16 11:14:32;;;;;;;29.80;15.23;;;;;;;5.35;91.47;102044.06;5096380;28;20212;-60
2023/12/16 11:17:09;;;;;;;30.67;15.10;;;;;;;5.37;91.52;102043.28;5094406;28;20212;-60
2023/12/16 11:19:42;;;;;;;21.33;13.17;;;;;;;5.35;91.39;102039.81;5104509;28;20209;-60